Terminal Aerodrome Forecast
Issued by NWS Charleston, WV

Current Version | Previous Version | Graphics & Text | Print | Product List | Glossary On
Versions: 1 2 3 4 5 6 7 8 9 10 11 12 13 14 15 16 17 18 19 20 21 22 23 24 25 26 27 28 29
000
FTUS41 KRLX 221510 AAA
TAFBKW
TAF AMD
KBKW 221510Z 2215/2312 35008KT 3SM SHRA OVC006
      TEMPO 2215/2219 1/2SM +SHRA OVC002
     FM222100 36010KT 4SM SHRA OVC007
     FM230000 03005KT 6SM -SHRA OVC008=

USA.gov is the U.S. government's official web portal to all federal, state and local government web resources and services.